Terminal Aerodrome Forecast
Issued by NWS

Home | Current Version | Previous Version | Text Only | Print | Product List | Glossary On
Versions: 1 2 3 4 5 6 7 8 9 10 11 12 13 14 15
000
FTUS46 KSGX 011517 AAB
TAFONT
TAF AMD
KONT 011517Z 0115/0218 27006KT 4SM BR FEW250
      TEMPO 0115/0116 3SM BR BKN007
     FM012000 26012G20KT P6SM SCT250
     FM020100 27009KT P6SM SCT250
     FM020500 VRB05KT P6SM FEW250
     FM021300 VRB03KT 4SM BR SCT008=

USA.gov is the U.S. government's official web portal to all federal, state and local government web resources and services.